Carlinville, IL (62626)

11:14 PM CDT op 01 september 2014 (GMT -0500)
Carlinville Firehouse | Change Station
CLOSE
Current Station
Persoonlijk weerstation
Location: Carlinville, IL
Geometrische hoogte: 623 ft
Nabije weerstations

Hoogte 623 ft 39.28 °N, 89.88 °W | Updated 3 seconds ago

Onweersbui
Onweersbui
70.5 °F
Voelt als 70.5 °F
N
0.0
Wind Variabel Wind van ZO
Gusts 0.0 mijl/u

Vandaag
Hoog -- | Laag -- °F
--% Kans op neerslag
Gisteren
Hoog -- | Laag -- °F
Precip. -- inches
6:28 AM 7:30 PM
Wassende halvemaan, 47% visible
Druk 29.93 inches
Zicht 7.0 mijlen
Wolken Licht bewolkt 3600 ft
Merendeels bewolkt 4800 ft
Dauwpunt 68 °F
Vochtigheid 93%
Neerslag 0.00 inches
Dikte sneeuw Niet beschikbaar.
UV 0 van de 12
Pollen 9.70 van de 12
Ozon Goed
PM2.5 Goed
Flu Activity Niet beschikbaar.
METAR K3LF 020355Z AUTO 35006KT 7SM +TSRA SCT036 BKN048 21/20 A2993 RMK AO2 LTG DSNT ALQS P0005 T02100200

More Conditions Fewer Conditions

Druk 29.93 inches
Zicht 7.0 mijlen
Wolken Licht bewolkt 3600 ft
Merendeels bewolkt 4800 ft
Dauwpunt 68 °F
Vochtigheid 93%
Neerslag 0.00 inches
Dikte sneeuw Niet beschikbaar.
UV 0 van de 12
Pollen 9.70 van de 12
Ozon Goed
PM2.5 Goed
Flu Activity Niet beschikbaar.
METAR K3LF 020355Z AUTO 35006KT 7SM +TSRA SCT036 BKN048 21/20 A2993 RMK AO2 LTG DSNT ALQS P0005 T02100200

More Conditions Fewer Conditions

10-Day Weather Forecast

Almanac

Astronomie

Sep. 01, 2014 Opkomst Ondergang
Werkelijke tijd 6:28 AM CDT 7:30 PM CDT
Burgerlijke schemering 6:00 AM CDT 7:57 PM CDT
Nautische schemering 5:27 AM CDT 8:30 PM CDT
Astronomische schemering 4:53 AM CDT 9:04 PM CDT
Maan 1:11 PM CDT (9/1) 11:34 PM CDT (9/1)
Golflengte van het zichtbare licht 13h 57m
Daglengte
13h 02m
Tomorrow will be 2m 28s shorter.
Wassende halvemaan, 47% of the Moon is Illuminated
sep 2
Wassende halvemaan
sep 2
Eerste kwartier
sep 8
Volle maan
sep 15
Laatste kwartier
sep 24
Nieuw

Extremen vandaag

State Highs State Lows

Community

WunderPhotos

Upload Photos

1,749,560 foto’s ge-upload!

WunderBlogs® & News

Nearby

Luchtkwaliteit

  Luchtkwaliteit LK-index Verontreinigende stof
Gisteren Goed
OZONE
Gisteren Goed
PM2.5
Actueel Goed
OZONE
Actueel Goed
PM2.5
maandag Matig
PM2.5
maandag Goed
OZONE
dinsdag Matig
PM2.5
dinsdag Goed
OZONE

Dikte sneeuw

Station Depth Geometrische hoogte
Er is geen verse sneeuw gerapporteerd.

Aardbevingen

Stad Distance Mag. Time & Date
No recent earthquake activity has been reported nearby.
Minimum magnitude displayed is 2.5.

Watertemperatuur langs de kust

Plaats Temperatuur
Geen meldingen van stations

Nabije weerstations